sensor_id;sensor_type;location;lat;lon;timestamp;P1;durP1;ratioP1;P2;durP2;ratioP2
22549;SDS011;11441;57.164;-2.120;2023-05-20T00:02:00;7.78;;;2.78;;
22549;SDS011;11441;57.164;-2.120;2023-05-20T00:04:27;13.82;;;3.35;;
22549;SDS011;11441;57.164;-2.120;2023-05-20T00:06:54;10.07;;;3.25;;
22549;SDS011;11441;57.164;-2.120;2023-05-20T00:09:21;13.15;;;3.20;;
22549;SDS011;11441;57.164;-2.120;2023-05-20T00:11:47;11.77;;;3.63;;
22549;SDS011;11441;57.164;-2.120;2023-05-20T00:14:14;8.40;;;2.75;;
22549;SDS011;11441;57.164;-2.120;2023-05-20T00:17:00;7.93;;;2.45;;
22549;SDS011;11441;57.164;-2.120;2023-05-20T00:19:27;12.20;;;3.47;;
22549;SDS011;11441;57.164;-2.120;2023-05-20T00:22:31;12.38;;;3.22;;
22549;SDS011;11441;57.164;-2.120;2023-05-20T00:24:58;11.48;;;3.47;;
22549;SDS011;11441;57.164;-2.120;2023-05-20T00:27:25;10.50;;;3.13;;
22549;SDS011;11441;57.164;-2.120;2023-05-20T00:29:52;10.43;;;2.92;;
22549;SDS011;11441;57.164;-2.120;2023-05-20T00:32:19;8.82;;;2.95;;
22549;SDS011;11441;57.164;-2.120;2023-05-20T00:34:54;8.63;;;2.80;;
22549;SDS011;11441;57.164;-2.120;2023-05-20T00:37:22;11.25;;;2.42;;
22549;SDS011;11441;57.164;-2.120;2023-05-20T00:39:50;10.23;;;2.85;;
22549;SDS011;11441;57.164;-2.120;2023-05-20T00:42:20;7.82;;;3.08;;
22549;SDS011;11441;57.164;-2.120;2023-05-20T00:44:48;11.93;;;3.05;;
22549;SDS011;11441;57.164;-2.120;2023-05-20T00:47:16;9.23;;;2.80;;
22549;SDS011;11441;57.164;-2.120;2023-05-20T00:49:45;9.32;;;3.17;;
22549;SDS011;11441;57.164;-2.120;2023-05-20T00:52:20;11.18;;;2.90;;
22549;SDS011;11441;57.164;-2.120;2023-05-20T00:54:48;10.77;;;3.42;;
22549;SDS011;11441;57.164;-2.120;2023-05-20T00:57:16;10.40;;;3.20;;
22549;SDS011;11441;57.164;-2.120;2023-05-20T00:59:45;8.32;;;2.78;;
22549;SDS011;11441;57.164;-2.120;2023-05-20T01:02:12;10.85;;;2.88;;
22549;SDS011;11441;57.164;-2.120;2023-05-20T01:04:39;8.50;;;2.78;;
22549;SDS011;11441;57.164;-2.120;2023-05-20T01:07:12;12.10;;;3.55;;
22549;SDS011;11441;57.164;-2.120;2023-05-20T01:09:41;16.10;;;2.75;;
22549;SDS011;11441;57.164;-2.120;2023-05-20T01:12:15;9.95;;;2.78;;
22549;SDS011;11441;57.164;-2.120;2023-05-20T01:15:08;13.27;;;3.42;;
22549;SDS011;11441;57.164;-2.120;2023-05-20T01:17:43;11.15;;;3.00;;
22549;SDS011;11441;57.164;-2.120;2023-05-20T01:20:13;6.70;;;2.47;;
22549;SDS011;11441;57.164;-2.120;2023-05-20T01:22:46;6.88;;;2.40;;
22549;SDS011;11441;57.164;-2.120;2023-05-20T01:25:13;9.30;;;2.53;;
22549;SDS011;11441;57.164;-2.120;2023-05-20T01:27:40;12.48;;;3.33;;
22549;SDS011;11441;57.164;-2.120;2023-05-20T01:30:07;13.68;;;2.78;;
22549;SDS011;11441;57.164;-2.120;2023-05-20T01:32:38;6.20;;;2.72;;
22549;SDS011;11441;57.164;-2.120;2023-05-20T01:35:08;12.25;;;3.15;;
22549;SDS011;11441;57.164;-2.120;2023-05-20T01:37:37;6.15;;;2.45;;
22549;SDS011;11441;57.164;-2.120;2023-05-20T01:40:06;9.02;;;3.08;;
22549;SDS011;11441;57.164;-2.120;2023-05-20T01:42:34;7.43;;;2.88;;
22549;SDS011;11441;57.164;-2.120;2023-05-20T01:45:03;9.30;;;3.25;;
22549;SDS011;11441;57.164;-2.120;2023-05-20T01:47:30;8.02;;;2.78;;
22549;SDS011;11441;57.164;-2.120;2023-05-20T01:49:58;9.50;;;2.75;;
22549;SDS011;11441;57.164;-2.120;2023-05-20T01:52:26;8.25;;;2.63;;
22549;SDS011;11441;57.164;-2.120;2023-05-20T01:54:53;10.80;;;2.65;;
22549;SDS011;11441;57.164;-2.120;2023-05-20T01:57:20;10.27;;;2.65;;
22549;SDS011;11441;57.164;-2.120;2023-05-20T01:59:49;7.50;;;2.60;;
22549;SDS011;11441;57.164;-2.120;2023-05-20T02:02:16;10.27;;;2.70;;
22549;SDS011;11441;57.164;-2.120;2023-05-20T02:04:44;5.97;;;2.58;;
22549;SDS011;11441;57.164;-2.120;2023-05-20T02:07:15;10.60;;;3.67;;
22549;SDS011;11441;57.164;-2.120;2023-05-20T02:09:44;7.13;;;2.20;;
22549;SDS011;11441;57.164;-2.120;2023-05-20T02:12:12;7.93;;;2.47;;
22549;SDS011;11441;57.164;-2.120;2023-05-20T02:14:43;13.57;;;3.42;;
22549;SDS011;11441;57.164;-2.120;2023-05-20T02:17:11;10.48;;;2.88;;
22549;SDS011;11441;57.164;-2.120;2023-05-20T02:19:42;8.30;;;2.58;;
22549;SDS011;11441;57.164;-2.120;2023-05-20T02:22:10;6.72;;;2.55;;
22549;SDS011;11441;57.164;-2.120;2023-05-20T02:24:37;10.10;;;2.80;;
22549;SDS011;11441;57.164;-2.120;2023-05-20T02:27:03;6.00;;;2.05;;
22549;SDS011;11441;57.164;-2.120;2023-05-20T02:29:32;11.38;;;2.85;;
22549;SDS011;11441;57.164;-2.120;2023-05-20T02:31:59;7.72;;;3.20;;
22549;SDS011;11441;57.164;-2.120;2023-05-20T02:34:27;9.23;;;2.80;;
22549;SDS011;11441;57.164;-2.120;2023-05-20T02:36:56;7.93;;;2.80;;
22549;SDS011;11441;57.164;-2.120;2023-05-20T02:39:23;5.55;;;1.95;;
22549;SDS011;11441;57.164;-2.120;2023-05-20T02:41:50;5.47;;;2.40;;
22549;SDS011;11441;57.164;-2.120;2023-05-20T02:44:17;7.03;;;3.17;;
22549;SDS011;11441;57.164;-2.120;2023-05-20T02:47:02;5.82;;;2.28;;
22549;SDS011;11441;57.164;-2.120;2023-05-20T02:49:29;8.52;;;2.20;;
22549;SDS011;11441;57.164;-2.120;2023-05-20T02:51:56;8.55;;;2.05;;
22549;SDS011;11441;57.164;-2.120;2023-05-20T02:54:23;9.43;;;2.75;;
22549;SDS011;11441;57.164;-2.120;2023-05-20T02:56:50;9.30;;;3.25;;
22549;SDS011;11441;57.164;-2.120;2023-05-20T02:59:17;10.07;;;2.60;;
22549;SDS011;11441;57.164;-2.120;2023-05-20T03:01:44;7.85;;;2.30;;
22549;SDS011;11441;57.164;-2.120;2023-05-20T03:04:11;13.13;;;3.10;;
22549;SDS011;11441;57.164;-2.120;2023-05-20T03:06:38;7.90;;;3.00;;
22549;SDS011;11441;57.164;-2.120;2023-05-20T03:09:10;10.57;;;2.78;;
22549;SDS011;11441;57.164;-2.120;2023-05-20T03:11:38;13.50;;;3.45;;
22549;SDS011;11441;57.164;-2.120;2023-05-20T03:14:05;8.40;;;2.75;;
22549;SDS011;11441;57.164;-2.120;2023-05-20T03:16:32;7.65;;;2.92;;
22549;SDS011;11441;57.164;-2.120;2023-05-20T03:19:01;9.23;;;3.05;;
22549;SDS011;11441;57.164;-2.120;2023-05-20T03:21:28;10.73;;;3.05;;
22549;SDS011;11441;57.164;-2.120;2023-05-20T03:23:55;8.57;;;3.05;;
22549;SDS011;11441;57.164;-2.120;2023-05-20T03:26:22;8.07;;;3.28;;
22549;SDS011;11441;57.164;-2.120;2023-05-20T03:28:51;13.20;;;2.80;;
22549;SDS011;11441;57.164;-2.120;2023-05-20T03:31:18;9.02;;;3.20;;
22549;SDS011;11441;57.164;-2.120;2023-05-20T03:33:45;12.50;;;3.60;;
22549;SDS011;11441;57.164;-2.120;2023-05-20T03:36:13;10.45;;;3.10;;
22549;SDS011;11441;57.164;-2.120;2023-05-20T03:38:39;9.60;;;3.13;;
22549;SDS011;11441;57.164;-2.120;2023-05-20T03:41:06;8.25;;;2.63;;
22549;SDS011;11441;57.164;-2.120;2023-05-20T03:43:33;11.93;;;3.45;;
22549;SDS011;11441;57.164;-2.120;2023-05-20T03:46:00;12.07;;;3.78;;
22549;SDS011;11441;57.164;-2.120;2023-05-20T03:48:27;14.45;;;3.97;;
22549;SDS011;11441;57.164;-2.120;2023-05-20T03:50:54;11.85;;;3.58;;
22549;SDS011;11441;57.164;-2.120;2023-05-20T03:53:21;12.13;;;3.53;;
22549;SDS011;11441;57.164;-2.120;2023-05-20T03:55:48;14.63;;;4.13;;
22549;SDS011;11441;57.164;-2.120;2023-05-20T03:58:16;12.90;;;4.10;;
22549;SDS011;11441;57.164;-2.120;2023-05-20T04:00:43;18.27;;;4.50;;
22549;SDS011;11441;57.164;-2.120;2023-05-20T04:03:10;11.88;;;4.57;;
22549;SDS011;11441;57.164;-2.120;2023-05-20T04:05:38;14.82;;;5.25;;
22549;SDS011;11441;57.164;-2.120;2023-05-20T04:08:13;9.65;;;5.25;;
22549;SDS011;11441;57.164;-2.120;2023-05-20T04:10:43;13.25;;;6.35;;
22549;SDS011;11441;57.164;-2.120;2023-05-20T04:15:56;13.30;;;6.82;;
22549;SDS011;11441;57.164;-2.120;2023-05-20T04:18:23;13.18;;;6.50;;
22549;SDS011;11441;57.164;-2.120;2023-05-20T04:20:52;7.20;;;5.10;;
22549;SDS011;11441;57.164;-2.120;2023-05-20T04:23:21;13.60;;;7.18;;
22549;SDS011;11441;57.164;-2.120;2023-05-20T04:28:35;12.45;;;5.78;;
22549;SDS011;11441;57.164;-2.120;2023-05-20T04:31:03;9.32;;;5.20;;
22549;SDS011;11441;57.164;-2.120;2023-05-20T04:33:33;14.98;;;5.63;;
22549;SDS011;11441;57.164;-2.120;2023-05-20T04:36:05;10.73;;;5.38;;
22549;SDS011;11441;57.164;-2.120;2023-05-20T04:38:34;16.23;;;5.68;;
22549;SDS011;11441;57.164;-2.120;2023-05-20T04:41:01;9.82;;;5.05;;
22549;SDS011;11441;57.164;-2.120;2023-05-20T04:43:29;11.85;;;5.50;;
22549;SDS011;11441;57.164;-2.120;2023-05-20T04:45:57;9.02;;;4.68;;
22549;SDS011;11441;57.164;-2.120;2023-05-20T04:48:25;10.23;;;5.38;;
22549;SDS011;11441;57.164;-2.120;2023-05-20T04:50:52;13.35;;;5.50;;
22549;SDS011;11441;57.164;-2.120;2023-05-20T04:53:38;15.43;;;5.75;;
22549;SDS011;11441;57.164;-2.120;2023-05-20T04:56:05;12.70;;;5.45;;
22549;SDS011;11441;57.164;-2.120;2023-05-20T04:58:33;9.30;;;4.82;;
22549;SDS011;11441;57.164;-2.120;2023-05-20T05:01:00;13.52;;;4.72;;
22549;SDS011;11441;57.164;-2.120;2023-05-20T05:03:28;13.82;;;5.25;;
22549;SDS011;11441;57.164;-2.120;2023-05-20T05:05:56;6.80;;;3.88;;
22549;SDS011;11441;57.164;-2.120;2023-05-20T05:08:24;10.50;;;4.85;;
22549;SDS011;11441;57.164;-2.120;2023-05-20T05:10:55;8.85;;;4.38;;
22549;SDS011;11441;57.164;-2.120;2023-05-20T05:13:21;11.20;;;5.35;;
22549;SDS011;11441;57.164;-2.120;2023-05-20T05:15:56;14.77;;;5.93;;
22549;SDS011;11441;57.164;-2.120;2023-05-20T05:18:26;10.05;;;5.07;;
22549;SDS011;11441;57.164;-2.120;2023-05-20T05:20:59;9.77;;;4.97;;
22549;SDS011;11441;57.164;-2.120;2023-05-20T05:23:31;9.45;;;5.05;;
22549;SDS011;11441;57.164;-2.120;2023-05-20T05:25:58;14.95;;;4.75;;
22549;SDS011;11441;57.164;-2.120;2023-05-20T05:28:26;10.60;;;4.97;;
22549;SDS011;11441;57.164;-2.120;2023-05-20T05:30:53;4.43;;;3.83;;
22549;SDS011;11441;57.164;-2.120;2023-05-20T05:33:21;13.95;;;5.93;;
22549;SDS011;11441;57.164;-2.120;2023-05-20T05:35:49;11.27;;;5.05;;
22549;SDS011;11441;57.164;-2.120;2023-05-20T05:38:16;14.35;;;5.65;;
22549;SDS011;11441;57.164;-2.120;2023-05-20T05:40:43;11.45;;;5.43;;
22549;SDS011;11441;57.164;-2.120;2023-05-20T05:43:10;13.88;;;5.85;;
22549;SDS011;11441;57.164;-2.120;2023-05-20T05:45:37;13.25;;;5.38;;
22549;SDS011;11441;57.164;-2.120;2023-05-20T05:48:05;11.13;;;5.72;;
22549;SDS011;11441;57.164;-2.120;2023-05-20T05:50:33;13.85;;;6.20;;
22549;SDS011;11441;57.164;-2.120;2023-05-20T05:53:00;10.70;;;5.05;;
22549;SDS011;11441;57.164;-2.120;2023-05-20T05:55:27;11.40;;;5.57;;
22549;SDS011;11441;57.164;-2.120;2023-05-20T05:57:54;11.68;;;5.10;;
22549;SDS011;11441;57.164;-2.120;2023-05-20T06:00:21;6.78;;;3.78;;
22549;SDS011;11441;57.164;-2.120;2023-05-20T06:05:36;13.27;;;6.22;;
22549;SDS011;11441;57.164;-2.120;2023-05-20T06:08:03;16.77;;;6.30;;
22549;SDS011;11441;57.164;-2.120;2023-05-20T06:10:32;11.13;;;5.80;;
22549;SDS011;11441;57.164;-2.120;2023-05-20T06:12:59;13.32;;;5.75;;
22549;SDS011;11441;57.164;-2.120;2023-05-20T06:15:26;13.60;;;5.38;;
22549;SDS011;11441;57.164;-2.120;2023-05-20T06:17:55;13.57;;;5.70;;
22549;SDS011;11441;57.164;-2.120;2023-05-20T06:20:40;9.98;;;4.60;;
22549;SDS011;11441;57.164;-2.120;2023-05-20T06:23:07;7.05;;;4.10;;
22549;SDS011;11441;57.164;-2.120;2023-05-20T06:28:34;16.23;;;5.45;;
22549;SDS011;11441;57.164;-2.120;2023-05-20T06:31:01;8.50;;;5.63;;
22549;SDS011;11441;57.164;-2.120;2023-05-20T06:33:31;14.45;;;5.60;;
22549;SDS011;11441;57.164;-2.120;2023-05-20T06:36:03;13.65;;;6.20;;
22549;SDS011;11441;57.164;-2.120;2023-05-20T06:38:31;10.32;;;4.95;;
22549;SDS011;11441;57.164;-2.120;2023-05-20T06:40:58;12.70;;;5.78;;
22549;SDS011;11441;57.164;-2.120;2023-05-20T06:43:25;12.40;;;5.85;;
22549;SDS011;11441;57.164;-2.120;2023-05-20T06:46:15;13.10;;;5.32;;
22549;SDS011;11441;57.164;-2.120;2023-05-20T06:48:47;6.60;;;4.47;;
22549;SDS011;11441;57.164;-2.120;2023-05-20T06:51:15;12.88;;;4.45;;
22549;SDS011;11441;57.164;-2.120;2023-05-20T06:53:45;11.30;;;4.60;;
22549;SDS011;11441;57.164;-2.120;2023-05-20T06:56:13;11.57;;;5.05;;
22549;SDS011;11441;57.164;-2.120;2023-05-20T06:58:40;7.80;;;3.58;;
22549;SDS011;11441;57.164;-2.120;2023-05-20T07:01:06;10.07;;;4.38;;
22549;SDS011;11441;57.164;-2.120;2023-05-20T07:03:33;12.63;;;4.45;;
22549;SDS011;11441;57.164;-2.120;2023-05-20T07:06:01;9.43;;;4.85;;
22549;SDS011;11441;57.164;-2.120;2023-05-20T07:08:28;9.20;;;4.60;;
22549;SDS011;11441;57.164;-2.120;2023-05-20T07:10:55;9.90;;;4.55;;
22549;SDS011;11441;57.164;-2.120;2023-05-20T07:13:23;9.93;;;4.00;;
22549;SDS011;11441;57.164;-2.120;2023-05-20T07:15:51;9.35;;;4.05;;
22549;SDS011;11441;57.164;-2.120;2023-05-20T07:18:18;9.45;;;4.15;;
22549;SDS011;11441;57.164;-2.120;2023-05-20T07:20:50;9.27;;;3.90;;
22549;SDS011;11441;57.164;-2.120;2023-05-20T07:23:29;12.00;;;3.70;;
22549;SDS011;11441;57.164;-2.120;2023-05-20T07:25:57;10.50;;;4.30;;
22549;SDS011;11441;57.164;-2.120;2023-05-20T07:28:24;12.75;;;4.72;;
22549;SDS011;11441;57.164;-2.120;2023-05-20T07:30:51;7.95;;;3.72;;
22549;SDS011;11441;57.164;-2.120;2023-05-20T07:33:26;10.75;;;3.25;;
22549;SDS011;11441;57.164;-2.120;2023-05-20T07:35:53;8.65;;;3.75;;
22549;SDS011;11441;57.164;-2.120;2023-05-20T07:38:21;10.77;;;3.97;;
22549;SDS011;11441;57.164;-2.120;2023-05-20T07:40:57;6.55;;;3.30;;
22549;SDS011;11441;57.164;-2.120;2023-05-20T07:43:24;9.30;;;3.72;;
22549;SDS011;11441;57.164;-2.120;2023-05-20T07:45:51;10.25;;;3.85;;
22549;SDS011;11441;57.164;-2.120;2023-05-20T07:48:18;9.60;;;3.78;;
22549;SDS011;11441;57.164;-2.120;2023-05-20T07:50:45;12.90;;;4.28;;
22549;SDS011;11441;57.164;-2.120;2023-05-20T07:53:13;11.73;;;4.40;;
22549;SDS011;11441;57.164;-2.120;2023-05-20T07:55:40;17.52;;;4.53;;
22549;SDS011;11441;57.164;-2.120;2023-05-20T07:58:08;11.18;;;3.72;;
22549;SDS011;11441;57.164;-2.120;2023-05-20T08:00:35;10.65;;;3.85;;
22549;SDS011;11441;57.164;-2.120;2023-05-20T08:03:05;11.75;;;3.80;;
22549;SDS011;11441;57.164;-2.120;2023-05-20T08:05:53;11.02;;;4.18;;
22549;SDS011;11441;57.164;-2.120;2023-05-20T08:08:20;9.15;;;3.80;;
22549;SDS011;11441;57.164;-2.120;2023-05-20T08:10:54;14.13;;;4.85;;
22549;SDS011;11441;57.164;-2.120;2023-05-20T08:13:39;10.18;;;3.85;;
22549;SDS011;11441;57.164;-2.120;2023-05-20T08:18:53;13.68;;;4.63;;
22549;SDS011;11441;57.164;-2.120;2023-05-20T08:21:20;11.15;;;3.63;;
22549;SDS011;11441;57.164;-2.120;2023-05-20T08:23:47;16.13;;;4.57;;
22549;SDS011;11441;57.164;-2.120;2023-05-20T08:26:14;14.63;;;3.70;;
22549;SDS011;11441;57.164;-2.120;2023-05-20T08:28:41;14.20;;;4.30;;
22549;SDS011;11441;57.164;-2.120;2023-05-20T08:31:08;9.50;;;3.58;;
22549;SDS011;11441;57.164;-2.120;2023-05-20T08:33:36;12.30;;;3.88;;
22549;SDS011;11441;57.164;-2.120;2023-05-20T08:36:03;11.15;;;3.70;;
22549;SDS011;11441;57.164;-2.120;2023-05-20T08:38:30;11.82;;;4.53;;
22549;SDS011;11441;57.164;-2.120;2023-05-20T08:40:58;10.98;;;4.20;;
22549;SDS011;11441;57.164;-2.120;2023-05-20T08:43:27;13.50;;;3.40;;
22549;SDS011;11441;57.164;-2.120;2023-05-20T08:45:57;16.65;;;4.28;;
22549;SDS011;11441;57.164;-2.120;2023-05-20T08:48:28;13.15;;;5.55;;
22549;SDS011;11441;57.164;-2.120;2023-05-20T08:50:56;11.00;;;4.60;;
22549;SDS011;11441;57.164;-2.120;2023-05-20T08:53:23;9.60;;;4.13;;
22549;SDS011;11441;57.164;-2.120;2023-05-20T08:55:52;10.82;;;4.93;;
22549;SDS011;11441;57.164;-2.120;2023-05-20T08:58:26;11.35;;;4.30;;
22549;SDS011;11441;57.164;-2.120;2023-05-20T09:00:58;10.73;;;4.55;;
22549;SDS011;11441;57.164;-2.120;2023-05-20T09:03:25;8.68;;;4.57;;
22549;SDS011;11441;57.164;-2.120;2023-05-20T09:05:52;19.05;;;5.60;;
22549;SDS011;11441;57.164;-2.120;2023-05-20T09:08:23;15.98;;;6.75;;
22549;SDS011;11441;57.164;-2.120;2023-05-20T09:11:09;11.02;;;4.75;;
22549;SDS011;11441;57.164;-2.120;2023-05-20T09:16:22;8.32;;;4.32;;
22549;SDS011;11441;57.164;-2.120;2023-05-20T09:18:49;17.80;;;5.40;;
22549;SDS011;11441;57.164;-2.120;2023-05-20T09:21:24;15.50;;;5.75;;
22549;SDS011;11441;57.164;-2.120;2023-05-20T09:23:52;19.38;;;5.90;;
22549;SDS011;11441;57.164;-2.120;2023-05-20T09:26:19;11.20;;;5.25;;
22549;SDS011;11441;57.164;-2.120;2023-05-20T09:28:47;14.25;;;5.10;;
22549;SDS011;11441;57.164;-2.120;2023-05-20T09:31:14;13.57;;;4.28;;
22549;SDS011;11441;57.164;-2.120;2023-05-20T09:33:41;11.20;;;4.03;;
22549;SDS011;11441;57.164;-2.120;2023-05-20T09:36:08;12.77;;;4.72;;
22549;SDS011;11441;57.164;-2.120;2023-05-20T09:38:36;14.20;;;5.68;;
22549;SDS011;11441;57.164;-2.120;2023-05-20T09:41:06;11.13;;;5.60;;
22549;SDS011;11441;57.164;-2.120;2023-05-20T09:43:40;9.73;;;4.47;;
22549;SDS011;11441;57.164;-2.120;2023-05-20T09:46:07;14.85;;;5.25;;
22549;SDS011;11441;57.164;-2.120;2023-05-20T09:48:35;10.73;;;4.75;;
22549;SDS011;11441;57.164;-2.120;2023-05-20T09:51:03;14.02;;;5.30;;
22549;SDS011;11441;57.164;-2.120;2023-05-20T09:53:32;14.50;;;4.70;;
22549;SDS011;11441;57.164;-2.120;2023-05-20T09:55:59;13.57;;;5.00;;
22549;SDS011;11441;57.164;-2.120;2023-05-20T09:58:26;10.57;;;4.07;;
22549;SDS011;11441;57.164;-2.120;2023-05-20T10:00:55;10.88;;;4.68;;
22549;SDS011;11441;57.164;-2.120;2023-05-20T10:03:22;11.98;;;5.07;;
22549;SDS011;11441;57.164;-2.120;2023-05-20T10:05:54;15.98;;;5.30;;
22549;SDS011;11441;57.164;-2.120;2023-05-20T10:08:44;16.15;;;5.50;;
22549;SDS011;11441;57.164;-2.120;2023-05-20T10:11:46;15.05;;;5.03;;
22549;SDS011;11441;57.164;-2.120;2023-05-20T10:19:58;16.50;;;5.32;;
22549;SDS011;11441;57.164;-2.120;2023-05-20T10:22:35;19.40;;;5.72;;
22549;SDS011;11441;57.164;-2.120;2023-05-20T10:25:05;16.60;;;6.05;;
22549;SDS011;11441;57.164;-2.120;2023-05-20T10:27:43;12.32;;;5.07;;
22549;SDS011;11441;57.164;-2.120;2023-05-20T10:30:14;17.55;;;5.32;;
22549;SDS011;11441;57.164;-2.120;2023-05-20T10:32:54;15.82;;;5.68;;
22549;SDS011;11441;57.164;-2.120;2023-05-20T10:38:12;12.48;;;5.18;;
22549;SDS011;11441;57.164;-2.120;2023-05-20T10:40:39;15.25;;;5.70;;
22549;SDS011;11441;57.164;-2.120;2023-05-20T10:43:16;13.25;;;5.28;;
22549;SDS011;11441;57.164;-2.120;2023-05-20T10:45:52;11.18;;;4.18;;
22549;SDS011;11441;57.164;-2.120;2023-05-20T10:48:27;14.82;;;4.97;;
22549;SDS011;11441;57.164;-2.120;2023-05-20T10:50:56;12.75;;;5.45;;
22549;SDS011;11441;57.164;-2.120;2023-05-20T10:53:26;12.02;;;3.97;;
22549;SDS011;11441;57.164;-2.120;2023-05-20T10:56:00;11.15;;;4.45;;
22549;SDS011;11441;57.164;-2.120;2023-05-20T10:58:27;15.93;;;4.47;;
22549;SDS011;11441;57.164;-2.120;2023-05-20T11:01:02;13.00;;;4.40;;
22549;SDS011;11441;57.164;-2.120;2023-05-20T11:03:29;14.07;;;3.85;;
22549;SDS011;11441;57.164;-2.120;2023-05-20T11:05:56;15.20;;;4.50;;
22549;SDS011;11441;57.164;-2.120;2023-05-20T11:08:26;14.00;;;4.63;;
22549;SDS011;11441;57.164;-2.120;2023-05-20T11:10:55;14.50;;;4.78;;
22549;SDS011;11441;57.164;-2.120;2023-05-20T11:13:24;11.27;;;4.38;;
22549;SDS011;11441;57.164;-2.120;2023-05-20T11:15:52;13.02;;;4.95;;
22549;SDS011;11441;57.164;-2.120;2023-05-20T11:18:50;8.52;;;3.65;;
22549;SDS011;11441;57.164;-2.120;2023-05-20T11:21:41;7.00;;;3.22;;
22549;SDS011;11441;57.164;-2.120;2023-05-20T11:24:09;16.17;;;4.57;;
22549;SDS011;11441;57.164;-2.120;2023-05-20T11:26:36;12.32;;;4.88;;
22549;SDS011;11441;57.164;-2.120;2023-05-20T11:29:04;13.40;;;4.47;;
22549;SDS011;11441;57.164;-2.120;2023-05-20T11:31:31;14.65;;;5.05;;
22549;SDS011;11441;57.164;-2.120;2023-05-20T11:33:58;8.52;;;4.15;;
22549;SDS011;11441;57.164;-2.120;2023-05-20T11:36:27;10.32;;;4.63;;
22549;SDS011;11441;57.164;-2.120;2023-05-20T11:38:55;18.80;;;6.22;;
22549;SDS011;11441;57.164;-2.120;2023-05-20T11:41:23;11.98;;;4.38;;
22549;SDS011;11441;57.164;-2.120;2023-05-20T11:43:54;14.38;;;4.00;;
22549;SDS011;11441;57.164;-2.120;2023-05-20T11:46:23;17.58;;;4.50;;
22549;SDS011;11441;57.164;-2.120;2023-05-20T11:48:52;13.27;;;4.18;;
22549;SDS011;11441;57.164;-2.120;2023-05-20T11:51:28;14.13;;;5.10;;
22549;SDS011;11441;57.164;-2.120;2023-05-20T11:53:59;12.50;;;4.82;;
22549;SDS011;11441;57.164;-2.120;2023-05-20T11:56:28;12.93;;;4.20;;
22549;SDS011;11441;57.164;-2.120;2023-05-20T11:58:56;17.45;;;5.35;;
22549;SDS011;11441;57.164;-2.120;2023-05-20T12:04:11;17.00;;;6.13;;
22549;SDS011;11441;57.164;-2.120;2023-05-20T12:06:42;12.25;;;4.28;;
22549;SDS011;11441;57.164;-2.120;2023-05-20T12:09:09;13.90;;;5.50;;
22549;SDS011;11441;57.164;-2.120;2023-05-20T12:11:37;12.45;;;5.07;;
22549;SDS011;11441;57.164;-2.120;2023-05-20T12:14:07;11.82;;;4.78;;
22549;SDS011;11441;57.164;-2.120;2023-05-20T12:16:53;17.13;;;5.85;;
22549;SDS011;11441;57.164;-2.120;2023-05-20T12:19:20;14.48;;;4.90;;
22549;SDS011;11441;57.164;-2.120;2023-05-20T12:21:47;13.02;;;6.28;;
22549;SDS011;11441;57.164;-2.120;2023-05-20T12:24:14;17.17;;;6.32;;
22549;SDS011;11441;57.164;-2.120;2023-05-20T12:26:41;12.95;;;5.53;;
22549;SDS011;11441;57.164;-2.120;2023-05-20T12:29:08;12.50;;;4.82;;
22549;SDS011;11441;57.164;-2.120;2023-05-20T12:32:30;16.52;;;5.82;;
22549;SDS011;11441;57.164;-2.120;2023-05-20T12:38:01;15.68;;;5.38;;
22549;SDS011;11441;57.164;-2.120;2023-05-20T12:40:28;12.40;;;5.63;;
22549;SDS011;11441;57.164;-2.120;2023-05-20T12:42:55;10.43;;;4.65;;
22549;SDS011;11441;57.164;-2.120;2023-05-20T12:45:22;18.13;;;6.35;;
22549;SDS011;11441;57.164;-2.120;2023-05-20T12:47:49;15.10;;;5.43;;
22549;SDS011;11441;57.164;-2.120;2023-05-20T12:50:16;19.92;;;5.88;;
22549;SDS011;11441;57.164;-2.120;2023-05-20T12:52:43;13.65;;;5.68;;
22549;SDS011;11441;57.164;-2.120;2023-05-20T12:55:11;16.70;;;5.30;;
22549;SDS011;11441;57.164;-2.120;2023-05-20T12:57:43;13.77;;;5.18;;
22549;SDS011;11441;57.164;-2.120;2023-05-20T13:00:12;13.45;;;5.25;;
22549;SDS011;11441;57.164;-2.120;2023-05-20T13:02:39;12.07;;;5.32;;
22549;SDS011;11441;57.164;-2.120;2023-05-20T13:05:07;17.75;;;6.70;;
22549;SDS011;11441;57.164;-2.120;2023-05-20T13:07:35;13.35;;;4.85;;
22549;SDS011;11441;57.164;-2.120;2023-05-20T13:10:02;24.38;;;7.05;;
22549;SDS011;11441;57.164;-2.120;2023-05-20T13:12:29;16.40;;;6.10;;
22549;SDS011;11441;57.164;-2.120;2023-05-20T13:14:56;14.35;;;5.47;;
22549;SDS011;11441;57.164;-2.120;2023-05-20T13:17:23;9.68;;;5.28;;
22549;SDS011;11441;57.164;-2.120;2023-05-20T13:20:09;13.93;;;5.95;;
22549;SDS011;11441;57.164;-2.120;2023-05-20T13:22:37;13.80;;;5.68;;
22549;SDS011;11441;57.164;-2.120;2023-05-20T13:25:04;18.60;;;6.57;;
22549;SDS011;11441;57.164;-2.120;2023-05-20T13:27:32;12.93;;;5.90;;
22549;SDS011;11441;57.164;-2.120;2023-05-20T13:29:58;18.20;;;7.22;;
22549;SDS011;11441;57.164;-2.120;2023-05-20T13:32:27;13.82;;;5.32;;
22549;SDS011;11441;57.164;-2.120;2023-05-20T13:34:54;14.38;;;6.53;;
22549;SDS011;11441;57.164;-2.120;2023-05-20T13:40:08;15.32;;;6.45;;
22549;SDS011;11441;57.164;-2.120;2023-05-20T13:42:35;16.58;;;5.45;;
22549;SDS011;11441;57.164;-2.120;2023-05-20T13:45:02;17.40;;;6.15;;
22549;SDS011;11441;57.164;-2.120;2023-05-20T13:47:30;18.42;;;6.70;;
22549;SDS011;11441;57.164;-2.120;2023-05-20T13:49:57;14.07;;;6.32;;
22549;SDS011;11441;57.164;-2.120;2023-05-20T13:52:26;16.60;;;6.85;;
22549;SDS011;11441;57.164;-2.120;2023-05-20T13:57:58;20.17;;;5.53;;
22549;SDS011;11441;57.164;-2.120;2023-05-20T14:00:25;13.88;;;5.78;;
22549;SDS011;11441;57.164;-2.120;2023-05-20T14:02:52;25.05;;;7.93;;
22549;SDS011;11441;57.164;-2.120;2023-05-20T14:05:19;24.52;;;7.85;;
22549;SDS011;11441;57.164;-2.120;2023-05-20T14:08:04;15.77;;;6.30;;
22549;SDS011;11441;57.164;-2.120;2023-05-20T14:10:31;15.43;;;6.22;;
22549;SDS011;11441;57.164;-2.120;2023-05-20T14:12:58;14.98;;;5.30;;
22549;SDS011;11441;57.164;-2.120;2023-05-20T14:15:27;16.52;;;6.18;;
22549;SDS011;11441;57.164;-2.120;2023-05-20T14:17:57;11.43;;;5.38;;
22549;SDS011;11441;57.164;-2.120;2023-05-20T14:20:24;15.23;;;6.60;;
22549;SDS011;11441;57.164;-2.120;2023-05-20T14:22:51;10.18;;;5.15;;
22549;SDS011;11441;57.164;-2.120;2023-05-20T14:25:18;17.02;;;5.97;;
22549;SDS011;11441;57.164;-2.120;2023-05-20T14:27:45;15.63;;;6.43;;
22549;SDS011;11441;57.164;-2.120;2023-05-20T14:30:12;19.02;;;7.22;;
22549;SDS011;11441;57.164;-2.120;2023-05-20T14:32:39;14.55;;;6.00;;
22549;SDS011;11441;57.164;-2.120;2023-05-20T14:35:06;11.65;;;5.68;;
22549;SDS011;11441;57.164;-2.120;2023-05-20T14:37:33;15.57;;;6.78;;
22549;SDS011;11441;57.164;-2.120;2023-05-20T14:40:00;14.85;;;6.60;;
22549;SDS011;11441;57.164;-2.120;2023-05-20T14:42:27;18.73;;;6.97;;
22549;SDS011;11441;57.164;-2.120;2023-05-20T14:44:54;15.65;;;7.13;;
22549;SDS011;11441;57.164;-2.120;2023-05-20T14:47:21;29.75;;;7.25;;
22549;SDS011;11441;57.164;-2.120;2023-05-20T14:49:48;19.17;;;7.20;;
22549;SDS011;11441;57.164;-2.120;2023-05-20T14:52:15;22.42;;;7.15;;
22549;SDS011;11441;57.164;-2.120;2023-05-20T14:55:01;16.20;;;6.78;;
22549;SDS011;11441;57.164;-2.120;2023-05-20T14:57:28;48.35;;;12.77;;
22549;SDS011;11441;57.164;-2.120;2023-05-20T14:59:55;16.08;;;6.25;;
22549;SDS011;11441;57.164;-2.120;2023-05-20T15:02:22;15.07;;;6.80;;
22549;SDS011;11441;57.164;-2.120;2023-05-20T15:04:49;19.38;;;6.90;;
22549;SDS011;11441;57.164;-2.120;2023-05-20T15:07:16;19.00;;;6.18;;
22549;SDS011;11441;57.164;-2.120;2023-05-20T15:09:43;19.80;;;6.88;;
22549;SDS011;11441;57.164;-2.120;2023-05-20T15:12:10;12.77;;;5.68;;
22549;SDS011;11441;57.164;-2.120;2023-05-20T15:14:36;14.70;;;6.32;;
22549;SDS011;11441;57.164;-2.120;2023-05-20T15:17:03;19.67;;;6.95;;